sensor_id;sensor_type;location;lat;lon;timestamp;P1;durP1;ratioP1;P2;durP2;ratioP2
11016;SDS011;54687;50.800;6.772;2022-07-09T00:02:18;3.83;;;2.33;;
11016;SDS011;54687;50.800;6.772;2022-07-09T00:04:49;3.90;;;2.50;;
11016;SDS011;54687;50.800;6.772;2022-07-09T00:07:17;3.33;;;2.30;;
11016;SDS011;54687;50.800;6.772;2022-07-09T00:09:43;3.15;;;2.35;;
11016;SDS011;54687;50.800;6.772;2022-07-09T00:12:10;3.60;;;2.35;;
11016;SDS011;54687;50.800;6.772;2022-07-09T00:14:36;3.20;;;2.30;;
11016;SDS011;54687;50.800;6.772;2022-07-09T00:17:03;2.88;;;2.25;;
11016;SDS011;54687;50.800;6.772;2022-07-09T00:19:29;2.67;;;2.17;;
11016;SDS011;54687;50.800;6.772;2022-07-09T00:21:56;3.63;;;2.53;;
11016;SDS011;54687;50.800;6.772;2022-07-09T00:24:24;2.50;;;2.17;;
11016;SDS011;54687;50.800;6.772;2022-07-09T00:26:50;2.97;;;2.17;;
11016;SDS011;54687;50.800;6.772;2022-07-09T00:29:16;2.15;;;1.95;;
11016;SDS011;54687;50.800;6.772;2022-07-09T00:31:43;6.38;;;2.78;;
11016;SDS011;54687;50.800;6.772;2022-07-09T00:34:11;3.40;;;2.70;;
11016;SDS011;54687;50.800;6.772;2022-07-09T00:36:37;3.50;;;2.40;;
11016;SDS011;54687;50.800;6.772;2022-07-09T00:39:04;3.08;;;2.70;;
11016;SDS011;54687;50.800;6.772;2022-07-09T00:41:31;4.45;;;2.78;;
11016;SDS011;54687;50.800;6.772;2022-07-09T00:43:58;3.75;;;2.70;;
11016;SDS011;54687;50.800;6.772;2022-07-09T00:46:24;2.85;;;2.65;;
11016;SDS011;54687;50.800;6.772;2022-07-09T00:48:51;4.10;;;2.72;;
11016;SDS011;54687;50.800;6.772;2022-07-09T00:51:17;3.53;;;2.50;;
11016;SDS011;54687;50.800;6.772;2022-07-09T00:53:44;3.33;;;2.55;;
11016;SDS011;54687;50.800;6.772;2022-07-09T00:56:11;5.50;;;2.42;;
11016;SDS011;54687;50.800;6.772;2022-07-09T00:58:40;3.42;;;2.63;;
11016;SDS011;54687;50.800;6.772;2022-07-09T01:01:08;4.63;;;2.55;;
11016;SDS011;54687;50.800;6.772;2022-07-09T01:03:34;4.70;;;2.20;;
11016;SDS011;54687;50.800;6.772;2022-07-09T01:06:01;2.80;;;2.60;;
11016;SDS011;54687;50.800;6.772;2022-07-09T01:08:27;2.67;;;2.47;;
11016;SDS011;54687;50.800;6.772;2022-07-09T01:10:53;3.22;;;2.50;;
11016;SDS011;54687;50.800;6.772;2022-07-09T01:13:20;5.47;;;2.63;;
11016;SDS011;54687;50.800;6.772;2022-07-09T01:15:48;3.17;;;2.40;;
11016;SDS011;54687;50.800;6.772;2022-07-09T01:18:14;3.45;;;2.63;;
11016;SDS011;54687;50.800;6.772;2022-07-09T01:20:42;3.58;;;2.80;;
11016;SDS011;54687;50.800;6.772;2022-07-09T01:23:08;4.60;;;2.50;;
11016;SDS011;54687;50.800;6.772;2022-07-09T01:25:35;3.53;;;3.00;;
11016;SDS011;54687;50.800;6.772;2022-07-09T01:28:02;3.15;;;2.30;;
11016;SDS011;54687;50.800;6.772;2022-07-09T01:30:30;3.40;;;2.67;;
11016;SDS011;54687;50.800;6.772;2022-07-09T01:32:57;3.13;;;2.75;;
11016;SDS011;54687;50.800;6.772;2022-07-09T01:35:23;2.70;;;2.50;;
11016;SDS011;54687;50.800;6.772;2022-07-09T01:37:51;4.30;;;2.92;;
11016;SDS011;54687;50.800;6.772;2022-07-09T01:40:18;2.88;;;2.42;;
11016;SDS011;54687;50.800;6.772;2022-07-09T01:42:45;3.10;;;2.80;;
11016;SDS011;54687;50.800;6.772;2022-07-09T01:45:11;2.90;;;2.65;;
11016;SDS011;54687;50.800;6.772;2022-07-09T01:47:38;2.92;;;2.63;;
11016;SDS011;54687;50.800;6.772;2022-07-09T01:50:05;2.85;;;2.60;;
11016;SDS011;54687;50.800;6.772;2022-07-09T01:52:32;3.13;;;2.70;;
11016;SDS011;54687;50.800;6.772;2022-07-09T01:55:00;3.05;;;2.50;;
11016;SDS011;54687;50.800;6.772;2022-07-09T01:57:26;3.22;;;2.55;;
11016;SDS011;54687;50.800;6.772;2022-07-09T01:59:52;2.63;;;2.42;;
11016;SDS011;54687;50.800;6.772;2022-07-09T02:02:19;3.17;;;2.80;;
11016;SDS011;54687;50.800;6.772;2022-07-09T02:04:46;2.78;;;2.47;;
11016;SDS011;54687;50.800;6.772;2022-07-09T02:07:12;3.10;;;2.80;;
11016;SDS011;54687;50.800;6.772;2022-07-09T02:09:39;2.65;;;2.45;;
11016;SDS011;54687;50.800;6.772;2022-07-09T02:12:07;3.05;;;2.60;;
11016;SDS011;54687;50.800;6.772;2022-07-09T02:14:33;3.22;;;2.80;;
11016;SDS011;54687;50.800;6.772;2022-07-09T02:17:00;3.78;;;2.90;;
11016;SDS011;54687;50.800;6.772;2022-07-09T02:19:26;2.67;;;2.42;;
11016;SDS011;54687;50.800;6.772;2022-07-09T02:21:53;3.33;;;2.65;;
11016;SDS011;54687;50.800;6.772;2022-07-09T02:24:19;3.42;;;2.97;;
11016;SDS011;54687;50.800;6.772;2022-07-09T02:26:46;3.08;;;2.78;;
11016;SDS011;54687;50.800;6.772;2022-07-09T02:29:14;3.08;;;2.78;;
11016;SDS011;54687;50.800;6.772;2022-07-09T02:31:40;3.85;;;3.15;;
11016;SDS011;54687;50.800;6.772;2022-07-09T02:34:06;2.97;;;2.78;;
11016;SDS011;54687;50.800;6.772;2022-07-09T02:36:33;3.72;;;2.92;;
11016;SDS011;54687;50.800;6.772;2022-07-09T02:38:59;3.88;;;3.00;;
11016;SDS011;54687;50.800;6.772;2022-07-09T02:41:26;6.13;;;3.30;;
11016;SDS011;54687;50.800;6.772;2022-07-09T02:43:52;3.28;;;2.90;;
11016;SDS011;54687;50.800;6.772;2022-07-09T02:46:20;2.80;;;2.60;;
11016;SDS011;54687;50.800;6.772;2022-07-09T02:48:46;2.92;;;2.72;;
11016;SDS011;54687;50.800;6.772;2022-07-09T02:51:12;3.20;;;3.00;;
11016;SDS011;54687;50.800;6.772;2022-07-09T02:53:39;4.93;;;2.83;;
11016;SDS011;54687;50.800;6.772;2022-07-09T02:56:06;3.20;;;2.70;;
11016;SDS011;54687;50.800;6.772;2022-07-09T02:58:32;3.05;;;2.70;;
11016;SDS011;54687;50.800;6.772;2022-07-09T03:00:58;4.88;;;2.97;;
11016;SDS011;54687;50.800;6.772;2022-07-09T03:03:26;4.78;;;2.78;;
11016;SDS011;54687;50.800;6.772;2022-07-09T03:05:53;3.03;;;2.83;;
11016;SDS011;54687;50.800;6.772;2022-07-09T03:08:19;3.50;;;2.95;;
11016;SDS011;54687;50.800;6.772;2022-07-09T03:10:47;3.13;;;2.83;;
11016;SDS011;54687;50.800;6.772;2022-07-09T03:13:13;3.22;;;2.58;;
11016;SDS011;54687;50.800;6.772;2022-07-09T03:15:39;4.10;;;3.00;;
11016;SDS011;54687;50.800;6.772;2022-07-09T03:18:06;4.45;;;3.47;;
11016;SDS011;54687;50.800;6.772;2022-07-09T03:20:34;4.47;;;3.17;;
11016;SDS011;54687;50.800;6.772;2022-07-09T03:23:01;2.90;;;2.70;;
11016;SDS011;54687;50.800;6.772;2022-07-09T03:25:28;3.15;;;2.60;;
11016;SDS011;54687;50.800;6.772;2022-07-09T03:27:54;4.03;;;3.10;;
11016;SDS011;54687;50.800;6.772;2022-07-09T03:30:20;6.35;;;3.25;;
11016;SDS011;54687;50.800;6.772;2022-07-09T03:32:48;3.83;;;3.20;;
11016;SDS011;54687;50.800;6.772;2022-07-09T03:35:15;2.97;;;2.67;;
11016;SDS011;54687;50.800;6.772;2022-07-09T03:37:42;4.95;;;3.00;;
11016;SDS011;54687;50.800;6.772;2022-07-09T03:40:09;3.53;;;3.03;;
11016;SDS011;54687;50.800;6.772;2022-07-09T03:42:35;3.45;;;2.90;;
11016;SDS011;54687;50.800;6.772;2022-07-09T03:45:02;3.65;;;3.30;;
11016;SDS011;54687;50.800;6.772;2022-07-09T03:47:29;3.75;;;3.20;;
11016;SDS011;54687;50.800;6.772;2022-07-09T03:49:55;3.00;;;2.60;;
11016;SDS011;54687;50.800;6.772;2022-07-09T03:52:21;3.67;;;3.28;;
11016;SDS011;54687;50.800;6.772;2022-07-09T03:54:49;6.40;;;3.00;;
11016;SDS011;54687;50.800;6.772;2022-07-09T03:57:16;4.32;;;2.67;;
11016;SDS011;54687;50.800;6.772;2022-07-09T03:59:42;3.40;;;2.80;;
11016;SDS011;54687;50.800;6.772;2022-07-09T04:02:08;3.15;;;2.85;;
11016;SDS011;54687;50.800;6.772;2022-07-09T04:04:35;3.83;;;3.20;;
11016;SDS011;54687;50.800;6.772;2022-07-09T04:07:01;3.30;;;2.90;;
11016;SDS011;54687;50.800;6.772;2022-07-09T04:09:28;3.50;;;3.08;;
11016;SDS011;54687;50.800;6.772;2022-07-09T04:11:56;4.50;;;2.78;;
11016;SDS011;54687;50.800;6.772;2022-07-09T04:14:22;4.28;;;2.97;;
11016;SDS011;54687;50.800;6.772;2022-07-09T04:16:49;4.72;;;2.95;;
11016;SDS011;54687;50.800;6.772;2022-07-09T04:19:15;4.72;;;3.20;;
11016;SDS011;54687;50.800;6.772;2022-07-09T04:21:42;3.88;;;2.88;;
11016;SDS011;54687;50.800;6.772;2022-07-09T04:24:08;2.80;;;2.60;;
11016;SDS011;54687;50.800;6.772;2022-07-09T04:26:34;5.50;;;3.00;;
11016;SDS011;54687;50.800;6.772;2022-07-09T04:29:02;4.53;;;2.88;;
11016;SDS011;54687;50.800;6.772;2022-07-09T04:31:29;2.90;;;2.70;;
11016;SDS011;54687;50.800;6.772;2022-07-09T04:33:55;3.83;;;3.13;;
11016;SDS011;54687;50.800;6.772;2022-07-09T04:36:21;4.30;;;2.95;;
11016;SDS011;54687;50.800;6.772;2022-07-09T04:38:48;3.40;;;3.08;;
11016;SDS011;54687;50.800;6.772;2022-07-09T04:41:14;5.38;;;3.30;;
11016;SDS011;54687;50.800;6.772;2022-07-09T04:43:41;2.97;;;2.70;;
11016;SDS011;54687;50.800;6.772;2022-07-09T04:46:08;5.95;;;3.05;;
11016;SDS011;54687;50.800;6.772;2022-07-09T04:48:35;5.55;;;3.53;;
11016;SDS011;54687;50.800;6.772;2022-07-09T04:51:01;5.78;;;3.30;;
11016;SDS011;54687;50.800;6.772;2022-07-09T04:53:28;6.28;;;3.35;;
11016;SDS011;54687;50.800;6.772;2022-07-09T04:55:54;9.25;;;3.35;;
11016;SDS011;54687;50.800;6.772;2022-07-09T04:58:21;6.82;;;3.20;;
11016;SDS011;54687;50.800;6.772;2022-07-09T05:00:48;4.78;;;3.17;;
11016;SDS011;54687;50.800;6.772;2022-07-09T05:03:15;5.30;;;3.35;;
11016;SDS011;54687;50.800;6.772;2022-07-09T05:05:42;4.60;;;3.05;;
11016;SDS011;54687;50.800;6.772;2022-07-09T05:08:08;8.45;;;3.75;;
11016;SDS011;54687;50.800;6.772;2022-07-09T05:10:35;4.30;;;3.50;;
11016;SDS011;54687;50.800;6.772;2022-07-09T05:13:01;6.28;;;3.50;;
11016;SDS011;54687;50.800;6.772;2022-07-09T05:15:27;5.82;;;3.35;;
11016;SDS011;54687;50.800;6.772;2022-07-09T05:17:55;6.80;;;3.90;;
11016;SDS011;54687;50.800;6.772;2022-07-09T05:20:23;4.50;;;3.60;;
11016;SDS011;54687;50.800;6.772;2022-07-09T05:22:50;3.42;;;3.13;;
11016;SDS011;54687;50.800;6.772;2022-07-09T05:25:17;6.75;;;3.90;;
11016;SDS011;54687;50.800;6.772;2022-07-09T05:27:44;5.25;;;3.47;;
11016;SDS011;54687;50.800;6.772;2022-07-09T05:30:11;3.13;;;2.80;;
11016;SDS011;54687;50.800;6.772;2022-07-09T05:32:39;7.53;;;3.67;;
11016;SDS011;54687;50.800;6.772;2022-07-09T05:35:06;3.30;;;3.00;;
11016;SDS011;54687;50.800;6.772;2022-07-09T05:37:34;3.80;;;3.00;;
11016;SDS011;54687;50.800;6.772;2022-07-09T05:40:00;4.75;;;3.58;;
11016;SDS011;54687;50.800;6.772;2022-07-09T05:42:30;6.63;;;3.67;;
11016;SDS011;54687;50.800;6.772;2022-07-09T05:44:57;6.60;;;4.07;;
11016;SDS011;54687;50.800;6.772;2022-07-09T05:47:23;4.25;;;3.85;;
11016;SDS011;54687;50.800;6.772;2022-07-09T05:49:50;6.18;;;4.15;;
11016;SDS011;54687;50.800;6.772;2022-07-09T05:52:16;7.45;;;4.28;;
11016;SDS011;54687;50.800;6.772;2022-07-09T05:54:44;6.43;;;4.07;;
11016;SDS011;54687;50.800;6.772;2022-07-09T05:57:10;8.00;;;4.68;;
11016;SDS011;54687;50.800;6.772;2022-07-09T05:59:36;7.53;;;4.95;;
11016;SDS011;54687;50.800;6.772;2022-07-09T06:02:03;6.00;;;5.07;;
11016;SDS011;54687;50.800;6.772;2022-07-09T06:04:30;5.88;;;4.50;;
11016;SDS011;54687;50.800;6.772;2022-07-09T06:06:57;4.30;;;3.80;;
11016;SDS011;54687;50.800;6.772;2022-07-09T06:09:23;6.15;;;4.15;;
11016;SDS011;54687;50.800;6.772;2022-07-09T06:11:51;8.68;;;5.10;;
11016;SDS011;54687;50.800;6.772;2022-07-09T06:14:17;6.53;;;4.57;;
11016;SDS011;54687;50.800;6.772;2022-07-09T06:16:44;7.68;;;4.85;;
11016;SDS011;54687;50.800;6.772;2022-07-09T06:19:12;9.10;;;5.47;;
11016;SDS011;54687;50.800;6.772;2022-07-09T06:21:38;7.40;;;5.85;;
11016;SDS011;54687;50.800;6.772;2022-07-09T06:24:05;7.93;;;5.60;;
11016;SDS011;54687;50.800;6.772;2022-07-09T06:26:32;9.15;;;6.13;;
11016;SDS011;54687;50.800;6.772;2022-07-09T06:29:00;8.60;;;6.25;;
11016;SDS011;54687;50.800;6.772;2022-07-09T06:31:26;8.18;;;6.03;;
11016;SDS011;54687;50.800;6.772;2022-07-09T06:33:53;8.85;;;7.95;;
11016;SDS011;54687;50.800;6.772;2022-07-09T06:36:19;8.80;;;6.90;;
11016;SDS011;54687;50.800;6.772;2022-07-09T06:38:45;7.38;;;6.57;;
11016;SDS011;54687;50.800;6.772;2022-07-09T06:41:31;6.70;;;5.38;;
11016;SDS011;54687;50.800;6.772;2022-07-09T06:43:59;8.07;;;5.88;;
11016;SDS011;54687;50.800;6.772;2022-07-09T06:46:26;9.73;;;6.93;;
11016;SDS011;54687;50.800;6.772;2022-07-09T06:48:52;8.18;;;6.50;;
11016;SDS011;54687;50.800;6.772;2022-07-09T06:51:18;9.15;;;6.43;;
11016;SDS011;54687;50.800;6.772;2022-07-09T06:53:45;9.20;;;7.15;;
11016;SDS011;54687;50.800;6.772;2022-07-09T06:56:11;9.60;;;8.43;;
11016;SDS011;54687;50.800;6.772;2022-07-09T06:58:38;10.50;;;8.18;;
11016;SDS011;54687;50.800;6.772;2022-07-09T07:01:05;7.68;;;6.88;;
11016;SDS011;54687;50.800;6.772;2022-07-09T07:03:32;7.32;;;6.40;;
11016;SDS011;54687;50.800;6.772;2022-07-09T07:05:58;12.23;;;7.22;;
11016;SDS011;54687;50.800;6.772;2022-07-09T07:08:25;8.93;;;7.97;;
11016;SDS011;54687;50.800;6.772;2022-07-09T07:10:51;12.77;;;8.02;;
11016;SDS011;54687;50.800;6.772;2022-07-09T07:13:17;13.00;;;7.70;;
11016;SDS011;54687;50.800;6.772;2022-07-09T07:15:44;9.70;;;7.57;;
11016;SDS011;54687;50.800;6.772;2022-07-09T07:18:15;8.82;;;7.40;;
11016;SDS011;54687;50.800;6.772;2022-07-09T07:20:42;9.95;;;7.22;;
11016;SDS011;54687;50.800;6.772;2022-07-09T07:23:08;6.95;;;5.40;;
11016;SDS011;54687;50.800;6.772;2022-07-09T07:25:34;6.18;;;5.50;;
11016;SDS011;54687;50.800;6.772;2022-07-09T07:28:01;10.50;;;5.00;;
11016;SDS011;54687;50.800;6.772;2022-07-09T07:30:29;7.68;;;5.47;;
11016;SDS011;54687;50.800;6.772;2022-07-09T07:32:57;6.90;;;4.78;;
11016;SDS011;54687;50.800;6.772;2022-07-09T07:35:25;7.13;;;6.00;;
11016;SDS011;54687;50.800;6.772;2022-07-09T07:37:52;6.00;;;4.80;;
11016;SDS011;54687;50.800;6.772;2022-07-09T07:40:18;7.63;;;4.93;;
11016;SDS011;54687;50.800;6.772;2022-07-09T07:42:45;6.72;;;4.50;;
11016;SDS011;54687;50.800;6.772;2022-07-09T07:45:11;6.10;;;4.47;;
11016;SDS011;54687;50.800;6.772;2022-07-09T07:47:38;5.88;;;3.67;;
11016;SDS011;54687;50.800;6.772;2022-07-09T07:50:05;4.60;;;3.72;;
11016;SDS011;54687;50.800;6.772;2022-07-09T07:52:33;5.53;;;4.68;;
11016;SDS011;54687;50.800;6.772;2022-07-09T07:54:59;5.38;;;4.07;;
11016;SDS011;54687;50.800;6.772;2022-07-09T07:57:26;6.95;;;3.85;;
11016;SDS011;54687;50.800;6.772;2022-07-09T07:59:52;4.22;;;3.40;;
11016;SDS011;54687;50.800;6.772;2022-07-09T08:02:18;6.20;;;2.88;;
11016;SDS011;54687;50.800;6.772;2022-07-09T08:04:45;4.22;;;3.63;;
11016;SDS011;54687;50.800;6.772;2022-07-09T08:07:11;5.22;;;3.75;;
11016;SDS011;54687;50.800;6.772;2022-07-09T08:09:39;5.00;;;2.70;;
11016;SDS011;54687;50.800;6.772;2022-07-09T08:12:06;5.10;;;2.97;;
11016;SDS011;54687;50.800;6.772;2022-07-09T08:14:32;5.68;;;2.83;;
11016;SDS011;54687;50.800;6.772;2022-07-09T08:16:59;5.88;;;3.35;;
11016;SDS011;54687;50.800;6.772;2022-07-09T08:19:25;3.80;;;2.63;;
11016;SDS011;54687;50.800;6.772;2022-07-09T08:21:52;3.85;;;2.63;;
11016;SDS011;54687;50.800;6.772;2022-07-09T08:24:18;3.25;;;2.00;;
11016;SDS011;54687;50.800;6.772;2022-07-09T08:26:46;10.95;;;4.28;;
11016;SDS011;54687;50.800;6.772;2022-07-09T08:29:12;5.45;;;2.60;;
11016;SDS011;54687;50.800;6.772;2022-07-09T08:31:39;1.67;;;1.58;;
11016;SDS011;54687;50.800;6.772;2022-07-09T08:34:05;2.70;;;1.83;;
11016;SDS011;54687;50.800;6.772;2022-07-09T08:36:31;3.40;;;1.95;;
11016;SDS011;54687;50.800;6.772;2022-07-09T08:38:58;2.40;;;1.90;;
11016;SDS011;54687;50.800;6.772;2022-07-09T08:41:24;3.92;;;1.90;;
11016;SDS011;54687;50.800;6.772;2022-07-09T08:43:52;2.47;;;1.50;;
11016;SDS011;54687;50.800;6.772;2022-07-09T08:46:19;4.18;;;2.20;;
11016;SDS011;54687;50.800;6.772;2022-07-09T08:48:45;2.67;;;1.90;;
11016;SDS011;54687;50.800;6.772;2022-07-09T08:51:12;3.65;;;1.85;;
11016;SDS011;54687;50.800;6.772;2022-07-09T08:53:39;5.20;;;2.10;;
11016;SDS011;54687;50.800;6.772;2022-07-09T08:56:06;2.08;;;1.90;;
11016;SDS011;54687;50.800;6.772;2022-07-09T08:58:33;4.07;;;2.20;;
11016;SDS011;54687;50.800;6.772;2022-07-09T09:01:01;3.17;;;2.00;;
11016;SDS011;54687;50.800;6.772;2022-07-09T09:03:29;4.50;;;1.95;;
11016;SDS011;54687;50.800;6.772;2022-07-09T09:05:59;7.55;;;2.58;;
11016;SDS011;54687;50.800;6.772;2022-07-09T09:08:26;2.40;;;2.03;;
11016;SDS011;54687;50.800;6.772;2022-07-09T09:10:53;4.00;;;1.95;;
11016;SDS011;54687;50.800;6.772;2022-07-09T09:13:19;4.60;;;2.00;;
11016;SDS011;54687;50.800;6.772;2022-07-09T09:15:45;4.75;;;2.10;;
11016;SDS011;54687;50.800;6.772;2022-07-09T09:18:13;4.82;;;2.00;;
11016;SDS011;54687;50.800;6.772;2022-07-09T09:20:44;3.35;;;2.35;;
11016;SDS011;54687;50.800;6.772;2022-07-09T09:23:15;6.10;;;2.10;;
11016;SDS011;54687;50.800;6.772;2022-07-09T09:25:42;3.03;;;1.80;;
11016;SDS011;54687;50.800;6.772;2022-07-09T09:28:09;3.22;;;2.03;;
11016;SDS011;54687;50.800;6.772;2022-07-09T09:30:40;4.47;;;1.45;;
11016;SDS011;54687;50.800;6.772;2022-07-09T09:33:07;3.08;;;1.90;;
11016;SDS011;54687;50.800;6.772;2022-07-09T09:35:36;3.17;;;1.77;;
11016;SDS011;54687;50.800;6.772;2022-07-09T09:38:08;2.40;;;1.60;;
11016;SDS011;54687;50.800;6.772;2022-07-09T09:40:34;2.33;;;1.85;;
11016;SDS011;54687;50.800;6.772;2022-07-09T09:43:02;4.13;;;2.00;;
11016;SDS011;54687;50.800;6.772;2022-07-09T09:45:28;2.45;;;1.80;;
11016;SDS011;54687;50.800;6.772;2022-07-09T09:47:55;3.75;;;1.90;;
11016;SDS011;54687;50.800;6.772;2022-07-09T09:50:25;4.65;;;1.77;;
11016;SDS011;54687;50.800;6.772;2022-07-09T09:52:53;4.15;;;1.80;;
11016;SDS011;54687;50.800;6.772;2022-07-09T09:55:20;2.47;;;1.60;;
11016;SDS011;54687;50.800;6.772;2022-07-09T09:57:47;3.20;;;1.60;;
11016;SDS011;54687;50.800;6.772;2022-07-09T10:00:14;4.13;;;1.85;;
11016;SDS011;54687;50.800;6.772;2022-07-09T10:02:42;4.00;;;1.80;;
11016;SDS011;54687;50.800;6.772;2022-07-09T10:05:09;5.10;;;1.90;;
11016;SDS011;54687;50.800;6.772;2022-07-09T10:07:35;2.70;;;1.83;;
11016;SDS011;54687;50.800;6.772;2022-07-09T10:10:04;5.57;;;2.10;;
11016;SDS011;54687;50.800;6.772;2022-07-09T10:12:32;4.32;;;2.17;;
11016;SDS011;54687;50.800;6.772;2022-07-09T10:14:59;3.85;;;1.90;;
11016;SDS011;54687;50.800;6.772;2022-07-09T10:17:26;2.25;;;1.98;;
11016;SDS011;54687;50.800;6.772;2022-07-09T10:19:54;3.70;;;1.63;;
11016;SDS011;54687;50.800;6.772;2022-07-09T10:22:21;2.63;;;1.70;;
11016;SDS011;54687;50.800;6.772;2022-07-09T10:24:50;1.75;;;1.52;;
11016;SDS011;54687;50.800;6.772;2022-07-09T10:27:18;1.85;;;1.35;;
11016;SDS011;54687;50.800;6.772;2022-07-09T10:29:52;1.90;;;1.42;;
11016;SDS011;54687;50.800;6.772;2022-07-09T10:32:21;2.60;;;1.60;;
11016;SDS011;54687;50.800;6.772;2022-07-09T10:34:53;3.63;;;1.30;;
11016;SDS011;54687;50.800;6.772;2022-07-09T10:37:29;3.05;;;1.52;;
11016;SDS011;54687;50.800;6.772;2022-07-09T10:39:56;2.17;;;1.75;;
11016;SDS011;54687;50.800;6.772;2022-07-09T10:42:23;1.30;;;1.17;;
11016;SDS011;54687;50.800;6.772;2022-07-09T10:44:50;2.45;;;1.40;;
11016;SDS011;54687;50.800;6.772;2022-07-09T10:47:17;1.75;;;1.52;;
11016;SDS011;54687;50.800;6.772;2022-07-09T10:49:43;2.75;;;1.80;;
11016;SDS011;54687;50.800;6.772;2022-07-09T10:52:10;1.67;;;1.48;;
11016;SDS011;54687;50.800;6.772;2022-07-09T10:54:44;3.28;;;1.88;;
11016;SDS011;54687;50.800;6.772;2022-07-09T10:57:11;3.72;;;1.45;;
11016;SDS011;54687;50.800;6.772;2022-07-09T10:59:44;2.38;;;1.60;;
11016;SDS011;54687;50.800;6.772;2022-07-09T11:02:16;2.53;;;1.60;;
11016;SDS011;54687;50.800;6.772;2022-07-09T11:04:43;2.53;;;1.70;;
11016;SDS011;54687;50.800;6.772;2022-07-09T11:07:18;2.75;;;1.60;;
11016;SDS011;54687;50.800;6.772;2022-07-09T11:09:44;3.92;;;1.88;;
11016;SDS011;54687;50.800;6.772;2022-07-09T11:12:14;4.72;;;2.80;;
11016;SDS011;54687;50.800;6.772;2022-07-09T11:14:43;2.45;;;1.80;;
11016;SDS011;54687;50.800;6.772;2022-07-09T11:17:13;2.25;;;1.50;;
11016;SDS011;54687;50.800;6.772;2022-07-09T11:19:40;2.72;;;1.80;;
11016;SDS011;54687;50.800;6.772;2022-07-09T11:22:06;2.00;;;1.80;;
11016;SDS011;54687;50.800;6.772;2022-07-09T11:24:33;2.25;;;1.70;;
11016;SDS011;54687;50.800;6.772;2022-07-09T11:27:02;3.30;;;1.65;;
11016;SDS011;54687;50.800;6.772;2022-07-09T11:29:29;3.22;;;2.03;;
11016;SDS011;54687;50.800;6.772;2022-07-09T11:31:57;3.17;;;1.90;;
11016;SDS011;54687;50.800;6.772;2022-07-09T11:34:23;2.60;;;1.40;;
11016;SDS011;54687;50.800;6.772;2022-07-09T11:36:51;2.38;;;1.70;;
11016;SDS011;54687;50.800;6.772;2022-07-09T11:39:21;2.90;;;1.58;;
11016;SDS011;54687;50.800;6.772;2022-07-09T11:41:50;2.70;;;1.55;;
11016;SDS011;54687;50.800;6.772;2022-07-09T11:44:21;2.13;;;1.92;;
11016;SDS011;54687;50.800;6.772;2022-07-09T11:47:03;2.72;;;1.90;;
11016;SDS011;54687;50.800;6.772;2022-07-09T11:49:36;3.47;;;1.85;;
11016;SDS011;54687;50.800;6.772;2022-07-09T11:52:03;2.22;;;2.03;;
11016;SDS011;54687;50.800;6.772;2022-07-09T11:54:30;2.95;;;1.90;;
11016;SDS011;54687;50.800;6.772;2022-07-09T11:56:56;2.67;;;1.80;;
11016;SDS011;54687;50.800;6.772;2022-07-09T11:59:26;1.67;;;1.58;;
11016;SDS011;54687;50.800;6.772;2022-07-09T12:01:56;3.45;;;2.20;;
11016;SDS011;54687;50.800;6.772;2022-07-09T12:04:23;2.28;;;2.08;;
11016;SDS011;54687;50.800;6.772;2022-07-09T12:06:50;3.38;;;1.98;;
11016;SDS011;54687;50.800;6.772;2022-07-09T12:09:26;2.17;;;1.98;;
11016;SDS011;54687;50.800;6.772;2022-07-09T12:11:53;2.45;;;2.25;;
11016;SDS011;54687;50.800;6.772;2022-07-09T12:14:20;2.60;;;2.20;;
11016;SDS011;54687;50.800;6.772;2022-07-09T12:16:46;3.10;;;2.05;;
11016;SDS011;54687;50.800;6.772;2022-07-09T12:19:12;3.20;;;2.20;;
11016;SDS011;54687;50.800;6.772;2022-07-09T12:21:40;2.92;;;2.33;;
11016;SDS011;54687;50.800;6.772;2022-07-09T12:24:07;3.70;;;2.10;;
11016;SDS011;54687;50.800;6.772;2022-07-09T12:26:33;2.70;;;2.30;;
11016;SDS011;54687;50.800;6.772;2022-07-09T12:28:59;2.72;;;2.28;;
11016;SDS011;54687;50.800;6.772;2022-07-09T12:31:26;3.50;;;2.58;;
11016;SDS011;54687;50.800;6.772;2022-07-09T12:33:52;2.65;;;2.20;;
11016;SDS011;54687;50.800;6.772;2022-07-09T12:36:19;4.88;;;2.85;;
11016;SDS011;54687;50.800;6.772;2022-07-09T12:38:47;5.07;;;2.30;;
11016;SDS011;54687;50.800;6.772;2022-07-09T12:41:13;2.30;;;2.10;;
11016;SDS011;54687;50.800;6.772;2022-07-09T12:43:39;2.22;;;2.00;;
11016;SDS011;54687;50.800;6.772;2022-07-09T12:46:06;3.67;;;2.50;;
11016;SDS011;54687;50.800;6.772;2022-07-09T12:48:32;2.90;;;2.13;;
11016;SDS011;54687;50.800;6.772;2022-07-09T12:50:59;3.05;;;2.03;;
11016;SDS011;54687;50.800;6.772;2022-07-09T12:53:25;3.33;;;2.13;;
11016;SDS011;54687;50.800;6.772;2022-07-09T12:55:53;4.32;;;2.40;;
11016;SDS011;54687;50.800;6.772;2022-07-09T12:58:19;3.40;;;2.42;;
11016;SDS011;54687;50.800;6.772;2022-07-09T13:00:46;2.60;;;2.10;;
11016;SDS011;54687;50.800;6.772;2022-07-09T13:03:12;3.75;;;2.40;;
11016;SDS011;54687;50.800;6.772;2022-07-09T13:05:39;3.83;;;2.65;;
11016;SDS011;54687;50.800;6.772;2022-07-09T13:08:05;4.25;;;2.38;;
11016;SDS011;54687;50.800;6.772;2022-07-09T13:10:32;2.92;;;2.30;;
11016;SDS011;54687;50.800;6.772;2022-07-09T13:12:59;2.80;;;2.38;;
11016;SDS011;54687;50.800;6.772;2022-07-09T13:15:26;2.60;;;2.40;;
11016;SDS011;54687;50.800;6.772;2022-07-09T13:17:52;3.25;;;2.60;;
11016;SDS011;54687;50.800;6.772;2022-07-09T13:20:19;2.35;;;2.08;;
11016;SDS011;54687;50.800;6.772;2022-07-09T13:22:46;3.85;;;2.20;;
11016;SDS011;54687;50.800;6.772;2022-07-09T13:25:12;3.15;;;2.22;;
11016;SDS011;54687;50.800;6.772;2022-07-09T13:27:38;4.38;;;2.30;;
11016;SDS011;54687;50.800;6.772;2022-07-09T13:30:07;4.32;;;3.05;;
11016;SDS011;54687;50.800;6.772;2022-07-09T13:32:34;3.70;;;2.85;;
11016;SDS011;54687;50.800;6.772;2022-07-09T13:35:00;4.20;;;2.63;;
11016;SDS011;54687;50.800;6.772;2022-07-09T13:37:26;4.57;;;3.33;;
11016;SDS011;54687;50.800;6.772;2022-07-09T13:39:53;9.05;;;3.83;;
11016;SDS011;54687;50.800;6.772;2022-07-09T13:42:19;4.93;;;3.58;;
11016;SDS011;54687;50.800;6.772;2022-07-09T13:44:46;5.53;;;4.22;;
11016;SDS011;54687;50.800;6.772;2022-07-09T13:47:13;10.95;;;5.90;;
11016;SDS011;54687;50.800;6.772;2022-07-09T13:49:40;8.75;;;7.57;;
11016;SDS011;54687;50.800;6.772;2022-07-09T13:52:06;10.13;;;8.85;;
11016;SDS011;54687;50.800;6.772;2022-07-09T13:54:33;9.60;;;8.80;;
11016;SDS011;54687;50.800;6.772;2022-07-09T13:56:59;10.90;;;9.55;;
11016;SDS011;54687;50.800;6.772;2022-07-09T13:59:26;11.75;;;10.65;;
11016;SDS011;54687;50.800;6.772;2022-07-09T14:01:52;10.45;;;9.45;;
11016;SDS011;54687;50.800;6.772;2022-07-09T14:04:20;12.10;;;11.00;;
11016;SDS011;54687;50.800;6.772;2022-07-09T14:06:46;12.25;;;11.15;;
11016;SDS011;54687;50.800;6.772;2022-07-09T14:09:13;13.27;;;12.00;;
11016;SDS011;54687;50.800;6.772;2022-07-09T14:11:41;15.75;;;14.10;;
11016;SDS011;54687;50.800;6.772;2022-07-09T14:14:08;14.52;;;13.18;;
11016;SDS011;54687;50.800;6.772;2022-07-09T14:16:34;14.70;;;13.20;;
11016;SDS011;54687;50.800;6.772;2022-07-09T14:19:02;13.13;;;11.77;;
11016;SDS011;54687;50.800;6.772;2022-07-09T14:21:30;16.38;;;14.85;;
11016;SDS011;54687;50.800;6.772;2022-07-09T14:23:56;17.60;;;15.95;;
11016;SDS011;54687;50.800;6.772;2022-07-09T14:26:23;15.93;;;14.32;;
11016;SDS011;54687;50.800;6.772;2022-07-09T14:28:49;15.40;;;14.15;;
11016;SDS011;54687;50.800;6.772;2022-07-09T14:31:16;15.98;;;14.57;;
11016;SDS011;54687;50.800;6.772;2022-07-09T14:33:42;17.08;;;15.57;;
11016;SDS011;54687;50.800;6.772;2022-07-09T14:36:08;14.75;;;13.45;;
11016;SDS011;54687;50.800;6.772;2022-07-09T14:38:36;15.60;;;14.20;;
11016;SDS011;54687;50.800;6.772;2022-07-09T14:41:03;15.55;;;14.25;;
11016;SDS011;54687;50.800;6.772;2022-07-09T14:43:29;14.07;;;12.77;;
11016;SDS011;54687;50.800;6.772;2022-07-09T14:45:56;12.52;;;11.43;;